createdAt,value
2019-01-23T00:00:25.709Z,92.70
2019-01-23T00:02:54.137Z,92.60
2019-01-23T00:05:22.559Z,92.90
2019-01-23T00:07:51.002Z,92.70
2019-01-23T00:10:19.405Z,92.60
2019-01-23T00:12:47.848Z,92.60
2019-01-23T00:15:16.254Z,92.40
2019-01-23T00:17:44.694Z,92.30
2019-01-23T00:20:13.250Z,92.30
2019-01-23T00:22:41.658Z,92.10
2019-01-23T00:25:10.736Z,92.50
2019-01-23T00:27:39.141Z,92.60
2019-01-23T00:30:10.709Z,92.70
2019-01-23T00:32:39.130Z,92.80
2019-01-23T00:35:08.024Z,93.00
2019-01-23T00:37:36.436Z,93.00
2019-01-23T00:40:16.286Z,93.00
2019-01-23T00:42:44.685Z,92.90
2019-01-23T00:45:15.544Z,92.90
2019-01-23T00:47:44.035Z,93.20
2019-01-23T00:50:14.096Z,92.80
2019-01-23T00:52:42.518Z,92.90
2019-01-23T00:55:16.152Z,93.00
2019-01-23T00:57:44.552Z,93.10
2019-01-23T01:00:18.966Z,93.30
2019-01-23T01:02:47.645Z,93.30
2019-01-23T01:05:16.607Z,93.30
2019-01-23T01:07:45.091Z,93.20
2019-01-23T01:10:16.478Z,93.20
2019-01-23T01:12:44.877Z,93.30
2019-01-23T01:15:13.859Z,93.40
2019-01-23T01:17:42.409Z,93.40
2019-01-23T01:20:15.448Z,93.40
2019-01-23T01:22:44.011Z,93.60
2019-01-23T01:25:15.077Z,93.80
2019-01-23T01:27:43.489Z,94.10
2019-01-23T01:30:17.725Z,93.90
2019-01-23T01:32:46.418Z,94.30
2019-01-23T01:35:14.854Z,94.40
2019-01-23T01:37:43.333Z,94.50
2019-01-23T01:40:14.123Z,94.40
2019-01-23T01:42:42.543Z,94.40
2019-01-23T01:45:12.397Z,94.20
2019-01-23T01:47:40.808Z,94.30
2019-01-23T01:50:12.343Z,94.20
2019-01-23T01:52:40.760Z,94.10
2019-01-23T01:55:10.040Z,93.90
2019-01-23T01:57:38.463Z,94.00
2019-01-23T02:00:09.960Z,94.00
2019-01-23T02:02:38.397Z,93.90
2019-01-23T02:05:07.557Z,94.10
2019-01-23T02:07:35.965Z,94.10
2019-01-23T02:10:07.839Z,94.20
2019-01-23T02:12:36.244Z,94.40
2019-01-23T02:15:07.614Z,94.40
2019-01-23T02:17:36.036Z,94.30
2019-01-23T02:20:07.536Z,94.40
2019-01-23T02:22:36.249Z,94.30
2019-01-23T02:25:06.317Z,94.40
2019-01-23T02:27:34.742Z,94.40
2019-01-23T02:30:04.522Z,94.60
2019-01-23T02:32:33.893Z,94.60
2019-01-23T02:35:02.335Z,94.50
2019-01-23T02:37:30.750Z,94.60
2019-01-23T02:39:59.194Z,94.50
2019-01-23T02:42:27.638Z,94.30
2019-01-23T02:44:56.065Z,94.20
2019-01-23T02:47:24.506Z,94.20
2019-01-23T02:49:52.949Z,94.30
2019-01-23T02:52:22.353Z,94.00
2019-01-23T02:54:50.795Z,94.00
2019-01-23T02:57:19.244Z,94.00
2019-01-23T02:59:47.669Z,94.20
2019-01-23T03:02:16.090Z,94.30
2019-01-23T03:04:44.529Z,94.20
2019-01-23T03:07:12.947Z,94.40
2019-01-23T03:09:41.460Z,94.60
2019-01-23T03:12:09.877Z,94.70
2019-01-23T03:14:38.295Z,94.70
2019-01-23T03:17:06.744Z,94.80
2019-01-23T03:19:35.633Z,94.70
2019-01-23T03:22:04.148Z,94.80
2019-01-23T03:24:32.580Z,95.00
2019-01-23T03:27:01.055Z,95.20
2019-01-23T03:29:29.514Z,95.30
2019-01-23T03:31:57.954Z,95.20
2019-01-23T03:34:26.368Z,95.20
2019-01-23T03:36:54.806Z,95.30
2019-01-23T03:39:23.229Z,95.30
2019-01-23T03:41:51.673Z,95.30
2019-01-23T03:44:20.093Z,95.30
2019-01-23T03:46:48.612Z,95.30
2019-01-23T03:49:17.033Z,95.30
2019-01-23T03:51:45.463Z,95.60
2019-01-23T03:54:13.905Z,95.80
2019-01-23T03:56:42.462Z,96.00
2019-01-23T03:59:10.902Z,96.30
2019-01-23T04:01:39.408Z,96.30
2019-01-23T04:04:07.996Z,96.50
2019-01-23T04:06:36.409Z,96.60
2019-01-23T04:09:06.987Z,96.90
2019-01-23T04:11:35.416Z,96.70
2019-01-23T04:14:04.118Z,96.40
2019-01-23T04:16:32.546Z,96.20
2019-01-23T04:19:00.994Z,96.10
2019-01-23T04:21:29.406Z,96.20
2019-01-23T04:23:57.851Z,96.30
2019-01-23T04:26:26.327Z,96.40
2019-01-23T04:28:54.792Z,96.40
2019-01-23T04:31:23.205Z,96.50
2019-01-23T04:33:51.641Z,96.50
2019-01-23T04:36:20.090Z,96.70
2019-01-23T04:38:48.544Z,96.80
2019-01-23T04:41:16.965Z,96.90
2019-01-23T04:43:45.725Z,96.90
2019-01-23T04:46:15.056Z,96.80
2019-01-23T04:48:43.492Z,96.80
2019-01-23T04:51:13.554Z,97.00
2019-01-23T04:53:43.639Z,97.00
2019-01-23T04:56:12.056Z,97.00
2019-01-23T04:58:40.510Z,97.10
2019-01-23T05:01:09.833Z,97.30
2019-01-23T05:03:38.265Z,97.60
2019-01-23T05:06:06.753Z,97.90
2019-01-23T05:08:35.208Z,98.00
2019-01-23T05:11:03.688Z,97.90
2019-01-23T05:13:33.073Z,97.80
2019-01-23T05:16:01.504Z,97.80
2019-01-23T05:18:29.947Z,97.80
2019-01-23T05:20:58.447Z,97.90
2019-01-23T05:23:26.895Z,98.00
2019-01-23T05:25:55.323Z,98.00
2019-01-23T05:28:23.756Z,98.10
2019-01-23T05:30:52.182Z,98.20
2019-01-23T05:33:20.636Z,98.40
2019-01-23T05:35:49.056Z,98.60
2019-01-23T05:38:17.514Z,98.60
2019-01-23T05:40:45.939Z,98.80
2019-01-23T05:43:14.370Z,99.00
2019-01-23T05:45:42.853Z,99.20
2019-01-23T05:48:11.289Z,99.10
2019-01-23T05:50:39.705Z,99.00
2019-01-23T05:53:08.178Z,98.90
2019-01-23T05:55:36.601Z,99.00
2019-01-23T05:58:05.081Z,99.20
2019-01-23T06:00:33.510Z,99.30
2019-01-23T06:03:01.931Z,99.30
2019-01-23T06:05:30.362Z,99.60
2019-01-23T06:07:58.777Z,99.80
2019-01-23T06:10:27.202Z,99.90
2019-01-23T06:12:55.628Z,99.90
2019-01-23T06:15:24.060Z,99.70
2019-01-23T06:17:52.499Z,99.90
2019-01-23T06:20:21.556Z,99.90
2019-01-23T06:22:50.007Z,99.90
2019-01-23T06:25:18.556Z,99.90
2019-01-23T06:27:46.997Z,99.90
2019-01-23T06:30:20.734Z,99.90
2019-01-23T06:32:49.295Z,99.90
2019-01-23T06:35:21.402Z,99.90
2019-01-23T06:37:49.827Z,99.90
2019-01-23T06:40:19.003Z,99.90
2019-01-23T06:42:47.413Z,99.90
2019-01-23T06:45:19.448Z,99.90
2019-01-23T06:47:49.298Z,99.90
2019-01-23T06:50:19.581Z,99.90
2019-01-23T06:52:48.079Z,99.90
2019-01-23T06:55:16.775Z,99.90
2019-01-23T06:57:45.185Z,99.90
2019-01-23T07:00:19.983Z,99.90
2019-01-23T07:02:49.057Z,99.90
2019-01-23T07:05:17.626Z,99.90
2019-01-23T07:07:46.204Z,99.90
2019-01-23T07:10:22.952Z,99.90
2019-01-23T07:12:51.386Z,99.90
2019-01-23T07:15:20.360Z,99.90
2019-01-23T07:17:48.772Z,99.90
2019-01-23T07:20:24.217Z,99.90
2019-01-23T07:22:52.639Z,99.90
2019-01-23T07:25:21.262Z,99.90
2019-01-23T07:27:49.733Z,99.90
2019-01-23T07:30:27.147Z,99.90
2019-01-23T07:32:55.549Z,99.90
2019-01-23T07:35:24.077Z,99.90
2019-01-23T07:37:52.485Z,99.90
2019-01-23T07:40:20.921Z,99.90
2019-01-23T07:42:49.336Z,99.90
2019-01-23T07:45:26.145Z,99.90
2019-01-23T07:47:54.694Z,99.90
2019-01-23T07:50:23.215Z,99.90
2019-01-23T07:52:51.692Z,99.90
2019-01-23T07:55:21.076Z,99.90
2019-01-23T07:57:49.556Z,99.90
2019-01-23T08:00:22.890Z,99.90
2019-01-23T08:02:51.647Z,99.90
2019-01-23T08:05:22.803Z,99.90
2019-01-23T08:07:51.776Z,99.90
2019-01-23T08:10:21.542Z,99.90
2019-01-23T08:12:50.120Z,99.90
2019-01-23T08:15:24.513Z,99.90
2019-01-23T08:17:52.933Z,99.90
2019-01-23T08:20:26.339Z,99.90
2019-01-23T08:22:54.759Z,99.90
2019-01-23T08:25:23.533Z,99.90
2019-01-23T08:27:52.186Z,99.90
2019-01-23T08:30:23.281Z,99.90
2019-01-23T08:32:51.680Z,99.90
2019-01-23T08:35:21.552Z,99.90
2019-01-23T08:37:50.109Z,99.90
2019-01-23T08:40:19.089Z,99.90
2019-01-23T08:42:47.505Z,99.90
2019-01-23T08:45:16.387Z,99.80
2019-01-23T08:47:44.882Z,99.60
2019-01-23T08:50:22.807Z,99.40
2019-01-23T08:52:51.220Z,99.30
2019-01-23T08:55:19.657Z,99.20
2019-01-23T08:57:48.091Z,99.50
2019-01-23T09:00:17.890Z,99.60
2019-01-23T09:02:46.452Z,99.50
2019-01-23T09:05:15.126Z,99.40
2019-01-23T09:07:43.685Z,99.10
2019-01-23T09:10:15.333Z,98.90
2019-01-23T09:12:43.767Z,98.70
2019-01-23T09:15:15.011Z,98.40
2019-01-23T09:17:43.435Z,98.20
2019-01-23T09:20:14.967Z,98.00
2019-01-23T09:22:43.460Z,98.00
2019-01-23T09:25:14.739Z,97.90
2019-01-23T09:27:43.148Z,98.20
2019-01-23T09:30:23.396Z,98.10
2019-01-23T09:33:14.442Z,97.80
2019-01-23T09:35:51.962Z,97.80
2019-01-23T09:38:23.474Z,97.70
2019-01-23T09:41:09.865Z,97.30
2019-01-23T09:44:02.615Z,97.10
2019-01-23T09:46:39.654Z,96.90
2019-01-23T09:49:19.877Z,96.00
2019-01-23T09:52:00.248Z,95.10
2019-01-23T09:54:29.034Z,94.10
2019-01-23T09:56:57.448Z,93.90
2019-01-23T09:59:25.866Z,93.40
2019-01-23T10:01:54.307Z,93.10
2019-01-23T10:04:22.739Z,93.40
2019-01-23T10:06:51.165Z,93.20
2019-01-23T10:09:19.591Z,92.40
2019-01-23T10:11:48.012Z,92.00
2019-01-23T10:14:16.421Z,92.10
2019-01-23T10:16:44.852Z,91.80
2019-01-23T10:19:13.276Z,91.30
2019-01-23T10:21:41.697Z,91.10
2019-01-23T10:24:10.184Z,90.80
2019-01-23T10:26:39.510Z,90.70
2019-01-23T10:29:07.966Z,90.20
2019-01-23T10:31:36.395Z,89.70
2019-01-23T10:34:05.141Z,90.10
2019-01-23T10:36:33.650Z,89.40
2019-01-23T10:39:02.066Z,89.40
2019-01-23T10:41:30.497Z,89.60
2019-01-23T10:43:58.916Z,89.90
2019-01-23T10:46:27.361Z,89.90
2019-01-23T10:48:55.778Z,89.60
2019-01-23T10:51:24.290Z,89.70
2019-01-23T10:53:52.698Z,88.40
2019-01-23T10:56:21.125Z,88.30
2019-01-23T10:58:49.554Z,87.50
2019-01-23T11:01:18.000Z,86.70
2019-01-23T11:03:46.419Z,86.70
2019-01-23T11:06:14.844Z,86.90
2019-01-23T11:08:43.324Z,86.20
2019-01-23T11:11:11.752Z,86.20
2019-01-23T11:13:40.177Z,85.20
2019-01-23T11:16:08.650Z,84.30
2019-01-23T11:18:37.139Z,83.30
2019-01-23T11:21:05.650Z,83.00
2019-01-23T11:23:34.113Z,82.90
2019-01-23T11:26:02.677Z,82.90
2019-01-23T11:28:31.099Z,82.30
2019-01-23T11:30:59.540Z,82.60
2019-01-23T11:33:27.946Z,82.10
2019-01-23T11:35:56.373Z,82.10
2019-01-23T11:38:24.777Z,81.10
2019-01-23T11:40:53.285Z,81.40
2019-01-23T11:43:21.771Z,80.60
2019-01-23T11:45:50.211Z,80.50
2019-01-23T11:48:18.638Z,80.50
2019-01-23T11:50:47.087Z,80.50
2019-01-23T11:53:15.538Z,80.10
2019-01-23T11:55:43.978Z,80.90
2019-01-23T11:58:12.392Z,80.00
2019-01-23T12:00:40.923Z,80.20
2019-01-23T12:03:09.324Z,79.80
2019-01-23T12:05:37.737Z,79.30
2019-01-23T12:08:06.242Z,79.60
2019-01-23T12:10:34.672Z,79.40
2019-01-23T12:13:03.169Z,79.40
2019-01-23T12:15:31.580Z,79.40
2019-01-23T12:18:00.091Z,79.40
2019-01-23T12:20:28.516Z,79.20
2019-01-23T12:23:00.007Z,79.90
2019-01-23T12:25:28.661Z,80.10
2019-01-23T12:27:57.124Z,79.70
2019-01-23T12:30:28.456Z,78.90
2019-01-23T12:32:56.881Z,77.80
2019-01-23T12:35:25.292Z,77.90
2019-01-23T12:37:53.892Z,77.40
2019-01-23T12:40:22.302Z,77.50
2019-01-23T12:42:50.909Z,77.50
2019-01-23T12:45:22.148Z,78.50
2019-01-23T12:47:50.729Z,78.40
2019-01-23T12:50:22.188Z,79.80
2019-01-23T12:52:50.627Z,80.50
2019-01-23T12:55:19.034Z,81.10
2019-01-23T12:57:47.599Z,81.10
2019-01-23T13:00:19.184Z,81.30
2019-01-23T13:02:47.617Z,81.20
2019-01-23T13:05:18.670Z,80.50
2019-01-23T13:07:47.569Z,80.60
2019-01-23T13:10:18.317Z,80.10
2019-01-23T13:12:46.885Z,80.40
2019-01-23T13:15:20.334Z,80.20
2019-01-23T13:17:48.827Z,79.80
2019-01-23T13:20:19.503Z,80.50
2019-01-23T13:22:48.016Z,81.00
2019-01-23T13:25:21.843Z,81.30
2019-01-23T13:27:51.023Z,82.20
2019-01-23T13:30:21.472Z,82.50
2019-01-23T13:32:49.970Z,82.40
2019-01-23T13:35:21.187Z,82.50
2019-01-23T13:37:49.671Z,83.10
2019-01-23T13:40:21.095Z,82.30
2019-01-23T13:42:49.536Z,82.40
2019-01-23T13:45:18.126Z,82.50
2019-01-23T13:47:46.553Z,82.90
2019-01-23T13:50:15.529Z,82.80
2019-01-23T13:52:43.962Z,82.10
2019-01-23T13:55:15.450Z,83.60
2019-01-23T13:57:43.954Z,84.30
2019-01-23T14:00:27.657Z,84.10
2019-01-23T14:02:56.425Z,84.00
2019-01-23T14:05:24.972Z,83.60
2019-01-23T14:07:53.431Z,84.00
2019-01-23T14:10:22.402Z,84.00
2019-01-23T14:12:50.933Z,84.30
2019-01-23T14:15:22.663Z,85.00
2019-01-23T14:17:51.096Z,85.20
2019-01-23T14:20:19.573Z,85.60
2019-01-23T14:22:48.011Z,85.80
2019-01-23T14:25:17.275Z,85.50
2019-01-23T14:27:45.799Z,85.50
2019-01-23T14:30:28.937Z,85.40
2019-01-23T14:32:57.366Z,85.20
2019-01-23T14:35:25.945Z,85.60
2019-01-23T14:38:00.506Z,85.70
2019-01-23T14:40:24.529Z,85.30
2019-01-23T14:42:53.026Z,84.90
2019-01-23T14:45:21.892Z,85.20
2019-01-23T14:47:50.340Z,85.40
2019-01-23T14:50:20.507Z,85.40
2019-01-23T14:52:49.366Z,85.00
2019-01-23T14:55:17.772Z,85.40
2019-01-23T14:57:46.287Z,85.80
2019-01-23T15:00:20.947Z,85.20
2019-01-23T15:02:49.523Z,85.90
2019-01-23T15:05:18.069Z,85.80
2019-01-23T15:07:46.564Z,86.70
2019-01-23T15:10:26.557Z,86.20
2019-01-23T15:12:55.322Z,85.50
2019-01-23T15:15:24.178Z,85.60
2019-01-23T15:17:53.252Z,86.40
2019-01-23T15:20:24.208Z,86.70
2019-01-23T15:22:52.660Z,87.00
2019-01-23T15:25:21.075Z,87.90
2019-01-23T15:27:50.435Z,88.20
2019-01-23T15:30:21.859Z,88.80
2019-01-23T15:32:50.384Z,88.70
2019-01-23T15:35:20.047Z,88.30
2019-01-23T15:37:48.482Z,88.20
2019-01-23T15:40:22.612Z,87.60
2019-01-23T15:42:51.052Z,88.10
2019-01-23T15:45:19.461Z,88.50
2019-01-23T15:47:47.898Z,88.60
2019-01-23T15:50:19.149Z,88.20
2019-01-23T15:52:47.641Z,88.80
2019-01-23T15:55:18.706Z,89.00
2019-01-23T15:57:47.213Z,89.20
2019-01-23T16:00:26.823Z,89.90
2019-01-23T16:02:55.392Z,89.00
2019-01-23T16:05:23.893Z,89.30
2019-01-23T16:07:52.385Z,89.60
2019-01-23T16:10:22.937Z,89.40
2019-01-23T16:12:51.364Z,90.00
2019-01-23T16:15:22.117Z,89.20
2019-01-23T16:17:50.545Z,89.70
2019-01-23T16:20:19.203Z,90.00
2019-01-23T16:22:47.756Z,89.60
2019-01-23T16:25:17.212Z,89.40
2019-01-23T16:27:46.304Z,89.70
2019-01-23T16:30:26.818Z,90.00
2019-01-23T16:32:55.237Z,90.10
2019-01-23T16:35:23.712Z,90.10
2019-01-23T16:37:52.227Z,90.00
2019-01-23T16:40:21.306Z,89.90
2019-01-23T16:42:49.723Z,89.80
2019-01-23T16:45:19.890Z,89.90
2019-01-23T16:47:48.445Z,90.00
2019-01-23T16:50:22.470Z,90.00
2019-01-23T16:52:50.960Z,89.90
2019-01-23T16:55:19.519Z,90.20
2019-01-23T16:57:48.361Z,90.30
2019-01-23T17:00:23.592Z,90.60
2019-01-23T17:02:53.321Z,90.60
2019-01-23T17:05:27.632Z,90.50
2019-01-23T17:07:56.709Z,90.30
2019-01-23T17:10:26.964Z,90.40
2019-01-23T17:12:55.545Z,90.20
2019-01-23T17:15:24.318Z,90.20
2019-01-23T17:17:53.093Z,90.00
2019-01-23T17:20:24.581Z,89.90
2019-01-23T17:22:53.011Z,90.20
2019-01-23T17:25:21.582Z,90.30
2019-01-23T17:27:50.003Z,90.60
2019-01-23T17:30:20.881Z,91.80
2019-01-23T17:32:49.357Z,90.80
2019-01-23T17:35:19.527Z,90.80
2019-01-23T17:37:48.010Z,90.80
2019-01-23T17:40:21.089Z,90.70
2019-01-23T17:42:49.560Z,90.90
2019-01-23T17:45:23.376Z,91.10
2019-01-23T17:47:51.795Z,91.30
2019-01-23T17:50:22.366Z,91.40
2019-01-23T17:52:51.417Z,91.60
2019-01-23T17:55:28.512Z,91.80
2019-01-23T17:57:56.980Z,91.90
2019-01-23T18:00:29.268Z,92.10
2019-01-23T18:02:57.751Z,92.30
2019-01-23T18:05:26.244Z,92.60
2019-01-23T18:07:55.511Z,92.70
2019-01-23T18:10:24.132Z,92.80
2019-01-23T18:12:52.536Z,93.00
2019-01-23T18:15:23.905Z,93.20
2019-01-23T18:17:52.437Z,93.40
2019-01-23T18:20:29.416Z,93.30
2019-01-23T18:22:57.894Z,93.50
2019-01-23T18:25:26.475Z,93.60
2019-01-23T18:27:55.159Z,93.70
2019-01-23T18:30:36.465Z,93.80
2019-01-23T18:33:08.131Z,93.60
2019-01-23T18:35:56.425Z,93.40
2019-01-23T18:38:27.927Z,93.70
2019-01-23T18:41:26.726Z,93.50
2019-01-23T18:44:04.224Z,93.40
2019-01-23T18:46:41.333Z,93.60
2019-01-23T18:49:21.671Z,93.60
2019-01-23T18:51:53.171Z,93.50
2019-01-23T18:54:21.592Z,93.60
2019-01-23T18:56:50.008Z,93.70
2019-01-23T18:59:18.447Z,93.60
2019-01-23T19:01:47.803Z,93.60
2019-01-23T19:04:16.223Z,93.40
2019-01-23T19:06:45.597Z,93.50
2019-01-23T19:09:14.024Z,93.50
2019-01-23T19:11:42.448Z,93.60
2019-01-23T19:14:10.857Z,93.50
2019-01-23T19:16:39.372Z,93.30
2019-01-23T19:19:07.914Z,93.20
2019-01-23T19:21:36.350Z,93.40
2019-01-23T19:24:05.615Z,93.30
2019-01-23T19:26:34.041Z,93.40
2019-01-23T19:29:02.471Z,93.40
2019-01-23T19:31:30.894Z,93.20
2019-01-23T19:33:59.442Z,93.20
2019-01-23T19:36:27.960Z,93.20
2019-01-23T19:38:56.387Z,93.40
2019-01-23T19:41:24.831Z,93.40
2019-01-23T19:43:53.248Z,93.20
2019-01-23T19:46:21.664Z,93.00
2019-01-23T19:48:50.156Z,92.80
2019-01-23T19:51:18.610Z,93.00
2019-01-23T19:53:47.023Z,93.10
2019-01-23T19:56:15.471Z,92.90
2019-01-23T19:58:44.162Z,93.00
2019-01-23T20:01:12.596Z,93.00
2019-01-23T20:03:41.027Z,93.10
2019-01-23T20:06:09.466Z,93.20
2019-01-23T20:08:37.889Z,93.20
2019-01-23T20:11:06.461Z,93.30
2019-01-23T20:13:34.878Z,93.30
2019-01-23T20:16:03.407Z,92.90
2019-01-23T20:18:31.826Z,93.10
2019-01-23T20:21:00.596Z,93.20
2019-01-23T20:23:29.073Z,93.40
2019-01-23T20:25:57.500Z,93.70
2019-01-23T20:28:25.923Z,93.90
2019-01-23T20:30:54.393Z,93.60
2019-01-23T20:33:27.994Z,93.50
2019-01-23T20:35:52.951Z,93.40
2019-01-23T20:38:21.353Z,93.40
2019-01-23T20:40:50.749Z,93.40
2019-01-23T20:43:19.174Z,93.20
2019-01-23T20:45:47.597Z,93.30
2019-01-23T20:48:16.023Z,93.50
2019-01-23T20:50:44.443Z,93.60
2019-01-23T20:53:12.947Z,93.90
2019-01-23T20:55:41.705Z,93.80
2019-01-23T20:58:10.586Z,94.10
2019-01-23T21:00:39.265Z,94.50
2019-01-23T21:03:07.763Z,94.90
2019-01-23T21:05:36.237Z,95.30
2019-01-23T21:08:04.836Z,95.70
2019-01-23T21:10:33.261Z,96.40
2019-01-23T21:13:01.680Z,96.80
2019-01-23T21:15:31.107Z,97.00
2019-01-23T21:17:59.642Z,97.60
2019-01-23T21:20:29.213Z,98.00
2019-01-23T21:22:57.637Z,97.90
2019-01-23T21:25:26.077Z,98.10
2019-01-23T21:27:55.486Z,98.40
2019-01-23T21:30:27.967Z,98.60
2019-01-23T21:32:56.469Z,99.00
2019-01-23T21:35:24.961Z,98.70
2019-01-23T21:37:53.444Z,98.90
2019-01-23T21:40:29.832Z,99.50
2019-01-23T21:42:58.262Z,99.80
2019-01-23T21:45:26.837Z,99.90
2019-01-23T21:47:55.285Z,99.90
2019-01-23T21:50:25.253Z,99.90
2019-01-23T21:52:53.835Z,99.90
2019-01-23T21:55:23.781Z,99.90
2019-01-23T21:57:52.350Z,99.90
2019-01-23T22:00:35.401Z,99.90
2019-01-23T22:03:06.172Z,99.90
2019-01-23T22:05:34.671Z,99.90
2019-01-23T22:08:03.189Z,99.90
2019-01-23T22:10:31.615Z,99.90
2019-01-23T22:13:00.036Z,99.90
2019-01-23T22:15:30.393Z,99.90
2019-01-23T22:17:58.898Z,99.90
2019-01-23T22:20:27.757Z,99.90
2019-01-23T22:22:56.189Z,99.90
2019-01-23T22:25:25.562Z,99.90
2019-01-23T22:27:54.443Z,99.90
2019-01-23T22:30:43.727Z,99.90
2019-01-23T22:33:12.225Z,99.90
2019-01-23T22:35:40.642Z,99.90
2019-01-23T22:38:09.073Z,99.90
2019-01-23T22:40:37.484Z,99.90
2019-01-23T22:43:05.989Z,99.90
2019-01-23T22:45:34.438Z,99.90
2019-01-23T22:48:02.856Z,99.90
2019-01-23T22:50:31.297Z,99.90
2019-01-23T22:53:00.393Z,99.90
2019-01-23T22:55:29.061Z,99.90
2019-01-23T22:57:57.510Z,99.90
2019-01-23T23:00:30.651Z,99.90
2019-01-23T23:02:59.552Z,99.90
2019-01-23T23:05:47.409Z,99.90
2019-01-23T23:08:15.889Z,99.90
2019-01-23T23:10:44.438Z,99.90
2019-01-23T23:13:13.172Z,99.90
2019-01-23T23:15:41.584Z,99.90
2019-01-23T23:18:10.174Z,99.90
2019-01-23T23:20:38.604Z,99.90
2019-01-23T23:23:07.106Z,99.90
2019-01-23T23:25:35.520Z,99.90
2019-01-23T23:28:04.097Z,99.90
2019-01-23T23:30:52.183Z,99.90
2019-01-23T23:33:20.623Z,99.90
2019-01-23T23:35:49.043Z,99.90
2019-01-23T23:38:17.475Z,99.90
2019-01-23T23:40:46.036Z,99.90
2019-01-23T23:43:14.495Z,99.90
2019-01-23T23:46:02.237Z,99.90
2019-01-23T23:48:30.670Z,99.90
2019-01-23T23:50:59.167Z,99.90
2019-01-23T23:53:27.621Z,99.90
2019-01-23T23:55:56.059Z,99.90
2019-01-23T23:58:24.484Z,99.90
